sensor_id;sensor_type;location;lat;lon;timestamp;pressure;altitude;pressure_sealevel;temperature;humidity
48630;BME280;34426;52.180;4.462;2023-05-19T00:01:43;102867.66;;;11.08;77.04
48630;BME280;34426;52.180;4.462;2023-05-19T00:04:11;102867.44;;;11.09;77.02
48630;BME280;34426;52.180;4.462;2023-05-19T00:06:39;102861.22;;;11.00;77.12
48630;BME280;34426;52.180;4.462;2023-05-19T00:09:09;102853.91;;;10.99;77.56
48630;BME280;34426;52.180;4.462;2023-05-19T00:11:38;102853.47;;;10.96;77.50
48630;BME280;34426;52.180;4.462;2023-05-19T00:14:07;102843.59;;;10.87;77.86
48630;BME280;34426;52.180;4.462;2023-05-19T00:16:35;102857.44;;;10.82;78.57
48630;BME280;34426;52.180;4.462;2023-05-19T00:19:03;102854.00;;;10.80;78.72
48630;BME280;34426;52.180;4.462;2023-05-19T00:21:31;102856.16;;;10.78;78.64
48630;BME280;34426;52.180;4.462;2023-05-19T00:23:58;102853.81;;;10.68;79.10
48630;BME280;34426;52.180;4.462;2023-05-19T00:26:28;102854.88;;;10.67;79.08
48630;BME280;34426;52.180;4.462;2023-05-19T00:28:55;102856.19;;;10.64;79.42
48630;BME280;34426;52.180;4.462;2023-05-19T00:31:23;102857.28;;;10.57;79.67
48630;BME280;34426;52.180;4.462;2023-05-19T00:33:50;102867.81;;;10.61;79.37
48630;BME280;34426;52.180;4.462;2023-05-19T00:36:18;102856.63;;;10.61;79.61
48630;BME280;34426;52.180;4.462;2023-05-19T00:38:45;102864.16;;;10.54;79.81
48630;BME280;34426;52.180;4.462;2023-05-19T00:41:13;102865.47;;;10.45;80.23
48630;BME280;34426;52.180;4.462;2023-05-19T00:43:42;102864.84;;;10.43;80.43
48630;BME280;34426;52.180;4.462;2023-05-19T00:46:09;102858.38;;;10.43;79.87
48630;BME280;34426;52.180;4.462;2023-05-19T00:48:36;102861.38;;;10.41;79.85
48630;BME280;34426;52.180;4.462;2023-05-19T00:51:05;102867.63;;;10.43;79.75
48630;BME280;34426;52.180;4.462;2023-05-19T00:53:33;102853.69;;;10.37;79.99
48630;BME280;34426;52.180;4.462;2023-05-19T00:56:01;102850.63;;;10.45;79.85
48630;BME280;34426;52.180;4.462;2023-05-19T00:58:30;102854.31;;;10.39;79.12
48630;BME280;34426;52.180;4.462;2023-05-19T01:01:00;102855.19;;;10.39;78.90
48630;BME280;34426;52.180;4.462;2023-05-19T01:03:28;102858.41;;;10.36;79.53
48630;BME280;34426;52.180;4.462;2023-05-19T01:05:56;102855.41;;;10.31;79.19
48630;BME280;34426;52.180;4.462;2023-05-19T01:08:24;102851.75;;;10.24;80.05
48630;BME280;34426;52.180;4.462;2023-05-19T01:10:51;102853.25;;;10.26;79.77
48630;BME280;34426;52.180;4.462;2023-05-19T01:13:19;102849.38;;;10.27;79.38
48630;BME280;34426;52.180;4.462;2023-05-19T01:15:59;102849.81;;;10.24;79.53
48630;BME280;34426;52.180;4.462;2023-05-19T01:18:37;102842.94;;;10.20;79.79
48630;BME280;34426;52.180;4.462;2023-05-19T01:24:00;102834.53;;;10.07;79.59
48630;BME280;34426;52.180;4.462;2023-05-19T01:29:38;102836.25;;;10.08;80.09
48630;BME280;34426;52.180;4.462;2023-05-19T01:32:10;102833.66;;;10.07;80.07
48630;BME280;34426;52.180;4.462;2023-05-19T01:34:42;102826.78;;;10.02;79.90
48630;BME280;34426;52.180;4.462;2023-05-19T01:37:11;102833.22;;;9.96;79.56
48630;BME280;34426;52.180;4.462;2023-05-19T01:39:40;102827.84;;;10.01;79.80
48630;BME280;34426;52.180;4.462;2023-05-19T01:42:08;102831.31;;;9.90;79.78
48630;BME280;34426;52.180;4.462;2023-05-19T01:44:37;102825.72;;;9.90;79.45
48630;BME280;34426;52.180;4.462;2023-05-19T01:47:07;102829.19;;;9.92;80.15
48630;BME280;34426;52.180;4.462;2023-05-19T01:49:35;102826.38;;;9.86;80.23
48630;BME280;34426;52.180;4.462;2023-05-19T01:52:02;102819.72;;;9.87;80.41
48630;BME280;34426;52.180;4.462;2023-05-19T01:54:30;102822.28;;;9.88;80.38
48630;BME280;34426;52.180;4.462;2023-05-19T01:57:03;102814.53;;;9.84;80.27
48630;BME280;34426;52.180;4.462;2023-05-19T01:59:43;102819.69;;;9.74;80.06
48630;BME280;34426;52.180;4.462;2023-05-19T02:02:24;102824.66;;;9.72;80.18
48630;BME280;34426;52.180;4.462;2023-05-19T02:04:56;102817.13;;;9.72;80.26
48630;BME280;34426;52.180;4.462;2023-05-19T02:07:30;102823.13;;;9.69;79.57
48630;BME280;34426;52.180;4.462;2023-05-19T02:10:06;102817.53;;;9.62;80.62
48630;BME280;34426;52.180;4.462;2023-05-19T02:12:37;102822.25;;;9.62;81.30
48630;BME280;34426;52.180;4.462;2023-05-19T02:15:08;102822.25;;;9.62;81.13
48630;BME280;34426;52.180;4.462;2023-05-19T02:17:41;102822.91;;;9.57;80.75
48630;BME280;34426;52.180;4.462;2023-05-19T02:20:09;102821.81;;;9.58;81.05
48630;BME280;34426;52.180;4.462;2023-05-19T02:22:37;102819.25;;;9.57;80.45
48630;BME280;34426;52.180;4.462;2023-05-19T02:25:05;102820.97;;;9.58;81.17
48630;BME280;34426;52.180;4.462;2023-05-19T02:27:32;102817.53;;;9.56;81.48
48630;BME280;34426;52.180;4.462;2023-05-19T02:30:00;102814.09;;;9.54;81.99
48630;BME280;34426;52.180;4.462;2023-05-19T02:32:27;102814.09;;;9.41;81.89
48630;BME280;34426;52.180;4.462;2023-05-19T02:34:56;102814.94;;;9.41;81.73
48630;BME280;34426;52.180;4.462;2023-05-19T02:37:24;102817.31;;;9.38;81.50
48630;BME280;34426;52.180;4.462;2023-05-19T02:39:51;102809.34;;;9.34;82.50
48630;BME280;34426;52.180;4.462;2023-05-19T02:42:19;102810.22;;;9.35;82.77
48630;BME280;34426;52.180;4.462;2023-05-19T02:44:47;102812.34;;;9.33;82.51
48630;BME280;34426;52.180;4.462;2023-05-19T02:47:14;102802.88;;;9.27;82.44
48630;BME280;34426;52.180;4.462;2023-05-19T02:49:42;102805.47;;;9.29;82.85
48630;BME280;34426;52.180;4.462;2023-05-19T02:52:11;102799.44;;;9.25;81.90
48630;BME280;34426;52.180;4.462;2023-05-19T02:54:38;102801.16;;;9.26;82.59
48630;BME280;34426;52.180;4.462;2023-05-19T02:57:06;102810.81;;;9.17;83.49
48630;BME280;34426;52.180;4.462;2023-05-19T02:59:34;102802.88;;;9.21;83.02
48630;BME280;34426;52.180;4.462;2023-05-19T03:02:02;102806.94;;;9.18;82.69
48630;BME280;34426;52.180;4.462;2023-05-19T03:04:29;102802.44;;;9.17;83.39
48630;BME280;34426;52.180;4.462;2023-05-19T03:06:57;102803.91;;;9.13;83.46
48630;BME280;34426;52.180;4.462;2023-05-19T03:09:26;102799.84;;;9.09;83.33
48630;BME280;34426;52.180;4.462;2023-05-19T03:11:53;102799.19;;;9.07;83.44
48630;BME280;34426;52.180;4.462;2023-05-19T03:14:21;102799.84;;;9.09;83.56
48630;BME280;34426;52.180;4.462;2023-05-19T03:16:48;102797.28;;;9.08;83.64
48630;BME280;34426;52.180;4.462;2023-05-19T03:19:15;102790.84;;;9.07;84.00
48630;BME280;34426;52.180;4.462;2023-05-19T03:21:43;102792.75;;;9.07;83.43
48630;BME280;34426;52.180;4.462;2023-05-19T03:24:10;102795.75;;;9.05;82.89
48630;BME280;34426;52.180;4.462;2023-05-19T03:26:39;102794.47;;;9.08;84.04
48630;BME280;34426;52.180;4.462;2023-05-19T03:29:07;102788.66;;;9.03;83.33
48630;BME280;34426;52.180;4.462;2023-05-19T03:31:34;102789.75;;;9.08;83.66
48630;BME280;34426;52.180;4.462;2023-05-19T03:34:01;102794.03;;;9.04;83.62
48630;BME280;34426;52.180;4.462;2023-05-19T03:36:29;102797.47;;;8.99;83.91
48630;BME280;34426;52.180;4.462;2023-05-19T03:38:56;102796.59;;;8.99;83.93
48630;BME280;34426;52.180;4.462;2023-05-19T03:41:24;102793.56;;;8.94;83.88
48630;BME280;34426;52.180;4.462;2023-05-19T03:43:53;102794.66;;;8.93;84.45
48630;BME280;34426;52.180;4.462;2023-05-19T03:46:21;102792.06;;;8.91;84.79
48630;BME280;34426;52.180;4.462;2023-05-19T03:48:48;102790.75;;;8.87;83.84
48630;BME280;34426;52.180;4.462;2023-05-19T03:51:16;102795.06;;;8.90;84.71
48630;BME280;34426;52.180;4.462;2023-05-19T03:53:43;102794.19;;;8.89;84.84
48630;BME280;34426;52.180;4.462;2023-05-19T03:56:11;102801.50;;;8.90;84.58
48630;BME280;34426;52.180;4.462;2023-05-19T03:58:38;102795.03;;;8.83;84.85
48630;BME280;34426;52.180;4.462;2023-05-19T04:01:09;102801.47;;;8.84;84.75
48630;BME280;34426;52.180;4.462;2023-05-19T04:03:37;102800.63;;;8.83;85.30
48630;BME280;34426;52.180;4.462;2023-05-19T04:06:05;102791.38;;;8.83;84.89
48630;BME280;34426;52.180;4.462;2023-05-19T04:08:32;102795.47;;;8.87;85.27
48630;BME280;34426;52.180;4.462;2023-05-19T04:10:59;102798.47;;;8.85;84.69
48630;BME280;34426;52.180;4.462;2023-05-19T04:13:27;102796.34;;;8.87;85.17
48630;BME280;34426;52.180;4.462;2023-05-19T04:15:54;102797.63;;;8.85;84.70
48630;BME280;34426;52.180;4.462;2023-05-19T04:18:24;102803.44;;;8.90;85.09
48630;BME280;34426;52.180;4.462;2023-05-19T04:20:51;102801.06;;;8.87;85.14
48630;BME280;34426;52.180;4.462;2023-05-19T04:23:18;102803.44;;;8.90;85.84
48630;BME280;34426;52.180;4.462;2023-05-19T04:25:47;102806.66;;;8.93;85.46
48630;BME280;34426;52.180;4.462;2023-05-19T04:28:15;102805.38;;;8.96;85.50
48630;BME280;34426;52.180;4.462;2023-05-19T04:30:42;102810.97;;;8.96;85.53
48630;BME280;34426;52.180;4.462;2023-05-19T04:33:09;102803.66;;;8.95;85.54
48630;BME280;34426;52.180;4.462;2023-05-19T04:35:38;102810.97;;;8.96;85.49
48630;BME280;34426;52.180;4.462;2023-05-19T04:38:06;102807.34;;;9.02;85.51
48630;BME280;34426;52.180;4.462;2023-05-19T04:40:33;102806.28;;;9.03;86.22
48630;BME280;34426;52.180;4.462;2023-05-19T04:43:00;102809.72;;;9.05;85.98
48630;BME280;34426;52.180;4.462;2023-05-19T04:45:28;102808.22;;;9.09;85.49
48630;BME280;34426;52.180;4.462;2023-05-19T04:47:55;102808.00;;;9.11;86.06
48630;BME280;34426;52.180;4.462;2023-05-19T04:50:23;102804.56;;;9.15;85.48
48630;BME280;34426;52.180;4.462;2023-05-19T04:52:52;102801.13;;;9.13;85.35
48630;BME280;34426;52.180;4.462;2023-05-19T04:55:20;102804.81;;;9.20;86.01
48630;BME280;34426;52.180;4.462;2023-05-19T04:57:47;102805.88;;;9.26;86.50
48630;BME280;34426;52.180;4.462;2023-05-19T05:00:15;102810.63;;;9.25;86.02
48630;BME280;34426;52.180;4.462;2023-05-19T05:02:42;102806.97;;;9.31;86.37
48630;BME280;34426;52.180;4.462;2023-05-19T05:05:10;102809.34;;;9.34;86.11
48630;BME280;34426;52.180;4.462;2023-05-19T05:07:37;102809.56;;;9.40;85.90
48630;BME280;34426;52.180;4.462;2023-05-19T05:10:09;102811.53;;;9.46;85.80
48630;BME280;34426;52.180;4.462;2023-05-19T05:12:37;102811.09;;;9.49;86.28
48630;BME280;34426;52.180;4.462;2023-05-19T05:15:05;102808.97;;;9.51;85.53
48630;BME280;34426;52.180;4.462;2023-05-19T05:17:33;102805.94;;;9.59;85.25
48630;BME280;34426;52.180;4.462;2023-05-19T05:20:01;102813.66;;;9.57;85.97
48630;BME280;34426;52.180;4.462;2023-05-19T05:22:28;102820.75;;;9.66;85.82
48630;BME280;34426;52.180;4.462;2023-05-19T05:24:56;102811.97;;;9.69;86.17
48630;BME280;34426;52.180;4.462;2023-05-19T05:27:26;102830.66;;;9.75;85.29
48630;BME280;34426;52.180;4.462;2023-05-19T05:29:53;102827.00;;;9.75;85.95
48630;BME280;34426;52.180;4.462;2023-05-19T05:32:20;102827.66;;;9.83;85.07
48630;BME280;34426;52.180;4.462;2023-05-19T05:34:48;102820.56;;;9.87;84.94
48630;BME280;34426;52.180;4.462;2023-05-19T05:37:16;102825.31;;;9.93;85.09
48630;BME280;34426;52.180;4.462;2023-05-19T05:39:43;102824.41;;;9.99;85.00
48630;BME280;34426;52.180;4.462;2023-05-19T05:42:11;102823.13;;;10.09;84.54
48630;BME280;34426;52.180;4.462;2023-05-19T05:44:40;102822.25;;;10.15;83.70
48630;BME280;34426;52.180;4.462;2023-05-19T05:47:08;102819.03;;;10.18;83.52
48630;BME280;34426;52.180;4.462;2023-05-19T05:49:36;102817.53;;;10.28;83.43
48630;BME280;34426;52.180;4.462;2023-05-19T05:52:04;102823.56;;;10.32;83.61
48630;BME280;34426;52.180;4.462;2023-05-19T05:54:33;102822.47;;;10.40;82.35
48630;BME280;34426;52.180;4.462;2023-05-19T05:57:00;102826.94;;;10.47;82.76
48630;BME280;34426;52.180;4.462;2023-05-19T05:59:28;102818.75;;;10.52;82.36
48630;BME280;34426;52.180;4.462;2023-05-19T06:01:57;102810.56;;;10.57;82.39
48630;BME280;34426;52.180;4.462;2023-05-19T06:04:25;102817.00;;;10.64;82.56
48630;BME280;34426;52.180;4.462;2023-05-19T06:06:52;102806.88;;;10.70;82.13
48630;BME280;34426;52.180;4.462;2023-05-19T06:09:19;102804.06;;;10.77;81.71
48630;BME280;34426;52.180;4.462;2023-05-19T06:11:46;102806.56;;;10.85;82.13
48630;BME280;34426;52.180;4.462;2023-05-19T06:14:14;102814.53;;;10.88;81.50
48630;BME280;34426;52.180;4.462;2023-05-19T06:16:41;102820.75;;;10.96;81.44
48630;BME280;34426;52.180;4.462;2023-05-19T06:19:10;102811.91;;;10.99;81.58
48630;BME280;34426;52.180;4.462;2023-05-19T06:21:37;102818.81;;;10.97;80.86
48630;BME280;34426;52.180;4.462;2023-05-19T06:24:05;102825.88;;;11.06;81.76
48630;BME280;34426;52.180;4.462;2023-05-19T06:26:32;102817.00;;;11.16;81.82
48630;BME280;34426;52.180;4.462;2023-05-19T06:28:59;102821.94;;;11.20;81.59
48630;BME280;34426;52.180;4.462;2023-05-19T06:31:28;102824.50;;;11.22;81.03
48630;BME280;34426;52.180;4.462;2023-05-19T06:33:56;102820.56;;;11.29;80.84
48630;BME280;34426;52.180;4.462;2023-05-19T06:36:25;102814.06;;;11.36;79.92
48630;BME280;34426;52.180;4.462;2023-05-19T06:38:52;102815.31;;;11.40;79.17
48630;BME280;34426;52.180;4.462;2023-05-19T06:41:20;102809.28;;;11.43;79.81
48630;BME280;34426;52.180;4.462;2023-05-19T06:43:47;102813.97;;;11.49;78.88
48630;BME280;34426;52.180;4.462;2023-05-19T06:46:14;102819.09;;;11.58;78.57
48630;BME280;34426;52.180;4.462;2023-05-19T06:48:42;102825.09;;;11.62;78.38
48630;BME280;34426;52.180;4.462;2023-05-19T06:51:09;102820.69;;;11.73;78.32
48630;BME280;34426;52.180;4.462;2023-05-19T06:53:38;102821.97;;;11.77;78.39
48630;BME280;34426;52.180;4.462;2023-05-19T06:56:06;102817.63;;;11.81;78.31
48630;BME280;34426;52.180;4.462;2023-05-19T06:58:33;102812.44;;;11.84;77.82
48630;BME280;34426;52.180;4.462;2023-05-19T07:01:01;102821.03;;;11.89;77.46
48630;BME280;34426;52.180;4.462;2023-05-19T07:03:28;102823.19;;;11.87;78.16
48630;BME280;34426;52.180;4.462;2023-05-19T07:05:56;102806.78;;;11.91;78.06
48630;BME280;34426;52.180;4.462;2023-05-19T07:08:23;102802.41;;;11.95;78.03
48630;BME280;34426;52.180;4.462;2023-05-19T07:10:52;102808.66;;;11.97;77.79
48630;BME280;34426;52.180;4.462;2023-05-19T07:13:19;102807.75;;;12.03;78.56
48630;BME280;34426;52.180;4.462;2023-05-19T07:15:46;102811.34;;;12.10;77.61
48630;BME280;34426;52.180;4.462;2023-05-19T07:18:13;102813.38;;;12.21;77.42
48630;BME280;34426;52.180;4.462;2023-05-19T07:20:40;102809.34;;;12.36;77.44
48630;BME280;34426;52.180;4.462;2023-05-19T07:23:08;102811.63;;;12.45;76.66
48630;BME280;34426;52.180;4.462;2023-05-19T07:25:35;102808.81;;;12.45;74.16
48630;BME280;34426;52.180;4.462;2023-05-19T07:28:04;102806.63;;;12.47;74.05
48630;BME280;34426;52.180;4.462;2023-05-19T07:30:32;102809.38;;;12.54;73.53
48630;BME280;34426;52.180;4.462;2023-05-19T07:32:58;102808.97;;;12.69;74.58
48630;BME280;34426;52.180;4.462;2023-05-19T07:35:26;102801.88;;;12.84;74.43
48630;BME280;34426;52.180;4.462;2023-05-19T07:37:53;102807.56;;;12.96;72.11
48630;BME280;34426;52.180;4.462;2023-05-19T07:40:21;102804.16;;;13.06;73.07
48630;BME280;34426;52.180;4.462;2023-05-19T07:42:48;102806.41;;;13.15;71.52
48630;BME280;34426;52.180;4.462;2023-05-19T07:45:18;102808.69;;;13.25;72.44
48630;BME280;34426;52.180;4.462;2023-05-19T07:47:45;102803.34;;;13.35;71.20
48630;BME280;34426;52.180;4.462;2023-05-19T07:50:13;102802.75;;;13.45;70.88
48630;BME280;34426;52.180;4.462;2023-05-19T07:52:40;102801.53;;;13.41;70.21
48630;BME280;34426;52.180;4.462;2023-05-19T07:55:08;102803.38;;;13.47;71.27
48630;BME280;34426;52.180;4.462;2023-05-19T07:57:35;102803.38;;;13.47;69.65
48630;BME280;34426;52.180;4.462;2023-05-19T08:00:02;102798.50;;;13.42;69.27
48630;BME280;34426;52.180;4.462;2023-05-19T08:02:32;102807.16;;;13.41;70.98
48630;BME280;34426;52.180;4.462;2023-05-19T08:04:59;102791.25;;;13.35;70.23
48630;BME280;34426;52.180;4.462;2023-05-19T08:07:27;102795.16;;;13.34;69.74
48630;BME280;34426;52.180;4.462;2023-05-19T08:09:54;102798.97;;;13.39;69.00
48630;BME280;34426;52.180;4.462;2023-05-19T08:12:21;102794.31;;;13.45;68.77
48630;BME280;34426;52.180;4.462;2023-05-19T08:14:49;102789.88;;;13.67;68.95
48630;BME280;34426;52.180;4.462;2023-05-19T08:17:17;102788.91;;;13.73;68.43
48630;BME280;34426;52.180;4.462;2023-05-19T08:19:46;102790.88;;;13.84;67.46
48630;BME280;34426;52.180;4.462;2023-05-19T08:22:14;102790.03;;;13.84;67.04
48630;BME280;34426;52.180;4.462;2023-05-19T08:24:41;102780.59;;;13.78;66.72
48630;BME280;34426;52.180;4.462;2023-05-19T08:27:09;102791.34;;;13.70;66.96
48630;BME280;34426;52.180;4.462;2023-05-19T08:29:36;102790.81;;;13.61;67.31
48630;BME280;34426;52.180;4.462;2023-05-19T08:32:04;102787.41;;;13.59;67.15
48630;BME280;34426;52.180;4.462;2023-05-19T08:34:31;102788.03;;;13.73;66.43
48630;BME280;34426;52.180;4.462;2023-05-19T08:37:01;102777.03;;;13.94;66.51
48630;BME280;34426;52.180;4.462;2023-05-19T08:39:28;102776.19;;;14.06;65.57
48630;BME280;34426;52.180;4.462;2023-05-19T08:41:55;102775.59;;;14.15;64.09
48630;BME280;34426;52.180;4.462;2023-05-19T08:44:23;102780.13;;;14.28;65.00
48630;BME280;34426;52.180;4.462;2023-05-19T08:46:50;102774.50;;;14.28;62.51
48630;BME280;34426;52.180;4.462;2023-05-19T08:49:25;102769.59;;;14.47;62.73
48630;BME280;34426;52.180;4.462;2023-05-19T08:51:57;102768.94;;;14.68;59.56
48630;BME280;34426;52.180;4.462;2023-05-19T08:54:32;102764.44;;;14.95;57.96
48630;BME280;34426;52.180;4.462;2023-05-19T08:57:01;102764.00;;;15.15;58.32
48630;BME280;34426;52.180;4.462;2023-05-19T08:59:28;102760.84;;;15.28;58.04
48630;BME280;34426;52.180;4.462;2023-05-19T09:01:57;102752.78;;;15.49;57.71
48630;BME280;34426;52.180;4.462;2023-05-19T09:04:25;102755.38;;;15.67;56.84
48630;BME280;34426;52.180;4.462;2023-05-19T09:06:53;102752.38;;;15.74;54.12
48630;BME280;34426;52.180;4.462;2023-05-19T09:09:20;102750.41;;;15.91;53.41
48630;BME280;34426;52.180;4.462;2023-05-19T09:11:49;102752.88;;;16.04;52.86
48630;BME280;34426;52.180;4.462;2023-05-19T09:14:17;102754.31;;;16.07;51.78
48630;BME280;34426;52.180;4.462;2023-05-19T09:16:45;102749.88;;;16.11;52.02
48630;BME280;34426;52.180;4.462;2023-05-19T09:19:13;102746.75;;;16.29;52.81
48630;BME280;34426;52.180;4.462;2023-05-19T09:21:41;102757.53;;;16.32;51.26
48630;BME280;34426;52.180;4.462;2023-05-19T09:24:09;102748.63;;;16.40;49.36
48630;BME280;34426;52.180;4.462;2023-05-19T09:26:37;102738.28;;;16.68;51.27
48630;BME280;34426;52.180;4.462;2023-05-19T09:29:12;102748.88;;;16.60;51.06
48630;BME280;34426;52.180;4.462;2023-05-19T09:31:46;102755.97;;;16.41;49.40
48630;BME280;34426;52.180;4.462;2023-05-19T09:34:14;102750.19;;;16.31;45.99
48630;BME280;34426;52.180;4.462;2023-05-19T09:36:41;102751.44;;;16.62;44.87
48630;BME280;34426;52.180;4.462;2023-05-19T09:39:13;102751.34;;;16.74;46.64
48630;BME280;34426;52.180;4.462;2023-05-19T09:41:40;102749.13;;;16.59;46.34
48630;BME280;34426;52.180;4.462;2023-05-19T09:44:06;102752.47;;;16.73;45.25
48630;BME280;34426;52.180;4.462;2023-05-19T09:46:35;102754.59;;;16.82;43.70
48630;BME280;34426;52.180;4.462;2023-05-19T09:49:08;102749.25;;;16.64;45.88
48630;BME280;34426;52.180;4.462;2023-05-19T09:51:36;102750.38;;;16.46;45.41
48630;BME280;34426;52.180;4.462;2023-05-19T09:54:03;102741.84;;;16.41;46.88
48630;BME280;34426;52.180;4.462;2023-05-19T09:56:33;102747.03;;;16.49;45.23
48630;BME280;34426;52.180;4.462;2023-05-19T09:59:02;102745.56;;;16.47;46.96
48630;BME280;34426;52.180;4.462;2023-05-19T10:01:30;102737.78;;;16.54;45.24
48630;BME280;34426;52.180;4.462;2023-05-19T10:03:59;102734.34;;;16.52;45.75
48630;BME280;34426;52.180;4.462;2023-05-19T10:06:27;102729.69;;;16.62;44.07
48630;BME280;34426;52.180;4.462;2023-05-19T10:08:55;102725.56;;;16.92;44.43
48630;BME280;34426;52.180;4.462;2023-05-19T10:11:22;102727.56;;;17.18;44.89
48630;BME280;34426;52.180;4.462;2023-05-19T10:13:51;102732.78;;;17.32;44.22
48630;BME280;34426;52.180;4.462;2023-05-19T10:16:19;102737.28;;;17.27;43.33
48630;BME280;34426;52.180;4.462;2023-05-19T10:18:49;102736.72;;;17.04;43.80
48630;BME280;34426;52.180;4.462;2023-05-19T10:21:18;102737.97;;;17.13;43.41
48630;BME280;34426;52.180;4.462;2023-05-19T10:23:46;102732.91;;;17.47;43.71
48630;BME280;34426;52.180;4.462;2023-05-19T10:26:13;102736.19;;;17.34;42.73
48630;BME280;34426;52.180;4.462;2023-05-19T10:28:42;102726.50;;;17.24;43.95
48630;BME280;34426;52.180;4.462;2023-05-19T10:31:14;102720.84;;;17.24;43.66
48630;BME280;34426;52.180;4.462;2023-05-19T10:34:06;102733.34;;;17.60;43.23
48630;BME280;34426;52.180;4.462;2023-05-19T10:36:46;102726.03;;;18.02;43.56
48630;BME280;34426;52.180;4.462;2023-05-19T10:39:20;102722.22;;;18.28;44.32
48630;BME280;34426;52.180;4.462;2023-05-19T10:41:56;102715.31;;;18.56;43.04
48630;BME280;34426;52.180;4.462;2023-05-19T10:44:39;102715.09;;;18.63;43.52
48630;BME280;34426;52.180;4.462;2023-05-19T10:47:10;102709.53;;;18.98;42.00
48630;BME280;34426;52.180;4.462;2023-05-19T10:49:39;102715.47;;;18.86;40.97
48630;BME280;34426;52.180;4.462;2023-05-19T10:52:21;102710.91;;;18.85;41.62
48630;BME280;34426;52.180;4.462;2023-05-19T10:54:49;102708.38;;;18.94;39.41
48630;BME280;34426;52.180;4.462;2023-05-19T10:57:17;102702.69;;;18.84;40.57
48630;BME280;34426;52.180;4.462;2023-05-19T10:59:45;102708.97;;;18.96;39.43
48630;BME280;34426;52.180;4.462;2023-05-19T11:02:37;102705.28;;;19.01;40.73
48630;BME280;34426;52.180;4.462;2023-05-19T11:05:08;102706.06;;;18.81;42.88
48630;BME280;34426;52.180;4.462;2023-05-19T11:07:40;102703.56;;;18.89;39.25
48630;BME280;34426;52.180;4.462;2023-05-19T11:10:07;102703.88;;;19.03;42.10
48630;BME280;34426;52.180;4.462;2023-05-19T11:12:41;102707.28;;;19.05;42.79
48630;BME280;34426;52.180;4.462;2023-05-19T11:15:11;102712.09;;;19.10;41.06
48630;BME280;34426;52.180;4.462;2023-05-19T11:17:40;102708.34;;;18.84;40.32
48630;BME280;34426;52.180;4.462;2023-05-19T11:20:11;102709.56;;;19.13;41.73
48630;BME280;34426;52.180;4.462;2023-05-19T11:23:04;102705.03;;;19.02;39.09
48630;BME280;34426;52.180;4.462;2023-05-19T11:25:47;102713.53;;;19.17;42.38
48630;BME280;34426;52.180;4.462;2023-05-19T11:28:18;102699.94;;;19.35;38.92
48630;BME280;34426;52.180;4.462;2023-05-19T11:30:46;102699.94;;;19.35;43.92
48630;BME280;34426;52.180;4.462;2023-05-19T11:33:13;102693.44;;;19.44;41.87
48630;BME280;34426;52.180;4.462;2023-05-19T11:35:41;102681.22;;;19.23;40.00
48630;BME280;34426;52.180;4.462;2023-05-19T11:38:12;102703.91;;;19.23;41.56
48630;BME280;34426;52.180;4.462;2023-05-19T11:40:40;102697.66;;;19.16;43.20
48630;BME280;34426;52.180;4.462;2023-05-19T11:43:09;102677.81;;;19.26;42.77
48630;BME280;34426;52.180;4.462;2023-05-19T11:45:36;102686.34;;;19.57;43.29
48630;BME280;34426;52.180;4.462;2023-05-19T11:48:05;102678.97;;;19.86;39.43
48630;BME280;34426;52.180;4.462;2023-05-19T11:50:32;102686.63;;;19.86;40.27
48630;BME280;34426;52.180;4.462;2023-05-19T11:53:00;102684.03;;;20.00;38.23
48630;BME280;34426;52.180;4.462;2023-05-19T11:55:30;102674.94;;;19.98;40.73
48630;BME280;34426;52.180;4.462;2023-05-19T11:57:59;102677.84;;;19.82;39.14
48630;BME280;34426;52.180;4.462;2023-05-19T12:00:26;102676.69;;;19.88;40.26
48630;BME280;34426;52.180;4.462;2023-05-19T12:02:54;102675.78;;;20.08;39.74
48630;BME280;34426;52.180;4.462;2023-05-19T12:05:22;102674.94;;;19.98;39.58
48630;BME280;34426;52.180;4.462;2023-05-19T12:07:50;102671.59;;;19.75;39.01
48630;BME280;34426;52.180;4.462;2023-05-19T12:10:20;102670.75;;;19.49;36.86
48630;BME280;34426;52.180;4.462;2023-05-19T12:12:49;102676.69;;;19.68;36.74
48630;BME280;34426;52.180;4.462;2023-05-19T12:15:19;102667.28;;;19.93;37.42
48630;BME280;34426;52.180;4.462;2023-05-19T12:17:49;102673.28;;;19.91;38.45
48630;BME280;34426;52.180;4.462;2023-05-19T12:20:17;102666.38;;;20.23;39.42
48630;BME280;34426;52.180;4.462;2023-05-19T12:22:45;102660.66;;;20.33;38.36
48630;BME280;34426;52.180;4.462;2023-05-19T12:25:14;102666.25;;;20.58;36.31
48630;BME280;34426;52.180;4.462;2023-05-19T12:27:43;102658.84;;;20.63;37.41
48630;BME280;34426;52.180;4.462;2023-05-19T12:30:13;102668.38;;;20.82;38.59
48630;BME280;34426;52.180;4.462;2023-05-19T12:32:42;102663.75;;;20.96;38.54
48630;BME280;34426;52.180;4.462;2023-05-19T12:35:10;102662.66;;;20.92;35.43
48630;BME280;34426;52.180;4.462;2023-05-19T12:37:41;102663.78;;;20.91;36.04
48630;BME280;34426;52.180;4.462;2023-05-19T12:40:13;102660.88;;;21.01;34.90
48630;BME280;34426;52.180;4.462;2023-05-19T12:42:43;102654.03;;;21.07;37.34
48630;BME280;34426;52.180;4.462;2023-05-19T12:45:13;102648.63;;;21.45;33.94
48630;BME280;34426;52.180;4.462;2023-05-19T12:47:40;102652.31;;;21.74;34.94
48630;BME280;34426;52.180;4.462;2023-05-19T12:50:09;102648.44;;;21.31;33.65
48630;BME280;34426;52.180;4.462;2023-05-19T12:52:41;102638.03;;;21.79;33.98
48630;BME280;34426;52.180;4.462;2023-05-19T12:55:10;102644.72;;;22.65;33.40
48630;BME280;34426;52.180;4.462;2023-05-19T12:57:39;102638.50;;;23.19;31.46
48630;BME280;34426;52.180;4.462;2023-05-19T13:00:11;102634.66;;;23.10;30.86
48630;BME280;34426;52.180;4.462;2023-05-19T13:03:00;102624.34;;;23.93;30.12
48630;BME280;34426;52.180;4.462;2023-05-19T13:05:28;102618.94;;;24.74;29.74
48630;BME280;34426;52.180;4.462;2023-05-19T13:08:00;102621.97;;;24.91;30.07